Time;durP1;ratioP1;P1;durP2;ratioP2;P2;SDS_P1;SDS_P2;PMS_P1;PMS_P2;Temp;Humidity;BMP_temperature;BMP_pressure;BME280_temperature;BME280_humidity;BME280_pressure;Samples;Min_cycle;Max_cycle;Signal;HPM_P1;HPM_P2
2021/01/07 00:00:41;;;;;;;20.53;15.83;;;1.40;99.90;;;;;;5036308;28;20186;-47
2021/01/07 00:03:07;;;;;;;20.37;15.30;;;1.50;99.90;;;;;;5037008;28;20246;-50
2021/01/07 00:05:33;;;;;;;21.77;15.70;;;1.50;99.90;;;;;;5040648;28;20180;-48
2021/01/07 00:07:58;;;;;;;20.67;15.73;;;1.50;99.90;;;;;;5038511;28;20192;-47
2021/01/07 00:10:24;;;;;;;20.77;15.60;;;1.50;99.90;;;;;;5040339;28;20636;-47
2021/01/07 00:12:50;;;;;;;20.33;15.40;;;1.60;99.90;;;;;;5038177;28;20187;-49
2021/01/07 00:15:15;;;;;;;21.50;16.30;;;1.60;99.90;;;;;;5039157;28;20172;-47
2021/01/07 00:17:41;;;;;;;23.00;16.17;;;1.60;99.90;;;;;;5039244;28;20211;-48
2021/01/07 00:20:08;;;;;;;22.83;17.23;;;1.60;99.90;;;;;;5036539;28;20220;-50
2021/01/07 00:22:34;;;;;;;19.60;15.47;;;1.50;99.90;;;;;;5037018;28;20265;-51
2021/01/07 00:25:00;;;;;;;23.30;16.60;;;1.60;99.90;;;;;;5021188;28;20941;-51
2021/01/07 00:27:25;;;;;;;20.67;15.77;;;1.50;99.90;;;;;;5036258;28;20222;-47
2021/01/07 00:29:51;;;;;;;23.30;16.13;;;1.50;99.90;;;;;;5041032;28;20226;-50
2021/01/07 00:32:16;;;;;;;23.57;17.37;;;1.50;99.90;;;;;;5034361;28;20192;-47
2021/01/07 00:34:42;;;;;;;24.03;17.23;;;1.50;99.90;;;;;;5024842;28;20185;-53
2021/01/07 00:37:08;;;;;;;22.03;16.00;;;1.40;99.90;;;;;;5035947;28;20234;-47
2021/01/07 00:39:33;;;;;;;21.67;15.80;;;1.50;99.90;;;;;;5035947;28;20564;-47
2021/01/07 00:41:59;;;;;;;22.00;16.53;;;1.50;99.90;;;;;;5038598;28;20616;-49
2021/01/07 00:44:26;;;;;;;21.83;16.83;;;1.50;99.90;;;;;;5044256;28;20211;-47
2021/01/07 00:46:52;;;;;;;21.07;15.97;;;1.50;99.90;;;;;;5036205;28;20445;-48
2021/01/07 00:49:18;;;;;;;21.90;16.10;;;1.50;99.90;;;;;;5040277;28;20495;-53
2021/01/07 00:51:44;;;;;;;22.10;16.70;;;1.50;99.90;;;;;;5038117;28;20473;-49
2021/01/07 00:54:10;;;;;;;23.27;17.07;;;1.50;99.90;;;;;;5040929;28;20419;-52
2021/01/07 00:56:37;;;;;;;22.07;15.90;;;1.50;99.90;;;;;;5036393;28;20322;-49
2021/01/07 00:59:04;;;;;;;22.43;16.50;;;1.50;99.90;;;;;;5040968;28;20446;-51
2021/01/07 01:01:30;;;;;;;23.60;17.57;;;1.50;99.90;;;;;;5042693;28;20497;-50
2021/01/07 01:03:55;;;;;;;22.17;16.43;;;1.50;99.90;;;;;;5029923;28;20438;-51
2021/01/07 01:06:28;;;;;;;23.73;17.03;;;1.50;99.90;;;;;;5033322;28;20191;-50
2021/01/07 01:08:53;;;;;;;23.17;16.97;;;1.50;99.90;;;;;;5039101;28;20691;-51
2021/01/07 01:11:20;;;;;;;22.47;16.80;;;1.40;99.90;;;;;;5038932;28;20423;-50
2021/01/07 01:13:45;;;;;;;22.60;16.70;;;1.40;99.90;;;;;;5028079;28;20176;-50
2021/01/07 01:16:11;;;;;;;21.77;16.43;;;1.40;99.90;;;;;;5040049;28;20468;-54
2021/01/07 01:18:36;;;;;;;22.27;16.63;;;1.30;99.90;;;;;;5016782;28;20295;-50
2021/01/07 01:21:02;;;;;;;21.07;16.07;;;1.30;99.90;;;;;;5016800;28;20181;-54
2021/01/07 01:23:27;;;;;;;21.47;17.20;;;1.40;99.90;;;;;;5018433;28;20181;-50
2021/01/07 01:25:53;;;;;;;22.47;16.77;;;1.40;99.90;;;;;;5029141;28;20184;-52
2021/01/07 01:28:19;;;;;;;23.60;17.73;;;1.30;99.90;;;;;;5035668;28;20254;-50
2021/01/07 01:30:44;;;;;;;23.37;17.03;;;1.40;99.90;;;;;;5030346;28;20176;-50
2021/01/07 01:33:10;;;;;;;24.17;17.47;;;1.30;99.90;;;;;;5018883;28;20200;-47
2021/01/07 01:35:35;;;;;;;23.00;16.87;;;1.20;99.90;;;;;;5023339;28;20247;-50
2021/01/07 01:38:01;;;;;;;23.73;17.10;;;1.20;99.90;;;;;;5032618;28;20287;-55
2021/01/07 01:40:26;;;;;;;23.57;16.97;;;1.20;99.90;;;;;;5038406;28;20208;-47
2021/01/07 01:42:52;;;;;;;24.73;17.80;;;1.20;99.90;;;;;;5023379;28;20176;-48
2021/01/07 01:45:17;;;;;;;21.87;16.67;;;1.20;99.90;;;;;;5014142;28;20672;-47
2021/01/07 01:47:43;;;;;;;22.20;16.43;;;1.20;99.90;;;;;;5031125;28;20262;-47
2021/01/07 01:50:09;;;;;;;22.83;16.40;;;1.20;99.90;;;;;;5037606;28;20176;-48
2021/01/07 01:52:36;;;;;;;22.20;16.90;;;1.30;99.90;;;;;;5026642;28;20529;-52
2021/01/07 01:55:01;;;;;;;22.60;16.90;;;1.30;99.90;;;;;;5037653;28;20214;-53
2021/01/07 01:57:30;;;;;;;25.37;17.90;;;1.30;99.90;;;;;;5020897;28;20438;-47
2021/01/07 01:59:56;;;;;;;22.70;17.20;;;1.30;99.90;;;;;;5031341;28;20240;-49
2021/01/07 02:02:22;;;;;;;21.33;15.57;;;1.40;99.90;;;;;;5019917;28;20415;-48
2021/01/07 02:04:48;;;;;;;20.90;15.83;;;1.40;99.90;;;;;;5014994;28;20283;-48
2021/01/07 02:07:19;;;;;;;20.00;15.33;;;1.50;99.90;;;;;;5032317;28;20172;-50
2021/01/07 02:09:45;;;;;;;19.73;15.80;;;1.50;99.90;;;;;;5038043;28;20427;-56
2021/01/07 02:12:11;;;;;;;20.60;15.40;;;1.40;99.90;;;;;;5031631;28;20477;-50
2021/01/07 02:14:41;;;;;;;22.03;16.30;;;1.40;99.90;;;;;;5020448;28;20207;-49
2021/01/07 02:17:07;;;;;;;21.27;15.77;;;1.50;99.90;;;;;;5026665;28;20434;-54
2021/01/07 02:19:33;;;;;;;21.67;15.70;;;1.50;99.90;;;;;;5023651;28;20463;-50
2021/01/07 02:21:59;;;;;;;20.73;15.47;;;1.50;99.90;;;;;;5018836;28;20973;-51
2021/01/07 02:24:25;;;;;;;22.17;15.97;;;1.50;99.90;;;;;;5027772;28;20179;-48
2021/01/07 02:26:52;;;;;;;19.63;15.20;;;1.60;99.90;;;;;;5036019;28;20477;-47
2021/01/07 02:29:17;;;;;;;20.93;15.57;;;1.60;99.90;;;;;;5035590;28;20548;-51
2021/01/07 02:31:43;;;;;;;18.93;15.37;;;1.60;99.90;;;;;;5037045;28;20394;-53
2021/01/07 02:34:08;;;;;;;18.70;15.00;;;1.60;99.90;;;;;;5038743;28;20180;-51
2021/01/07 02:36:34;;;;;;;19.63;15.03;;;1.60;99.90;;;;;;5037289;28;20188;-47
2021/01/07 02:38:59;;;;;;;20.60;15.40;;;1.60;99.90;;;;;;5033975;28;20207;-50
2021/01/07 02:41:25;;;;;;;21.70;15.57;;;1.50;99.90;;;;;;5033321;28;20191;-49
2021/01/07 02:43:51;;;;;;;20.97;15.50;;;1.50;99.90;;;;;;5015810;28;20661;-51
2021/01/07 02:46:16;;;;;;;20.30;16.13;;;1.50;99.90;;;;;;5019565;28;20202;-50
2021/01/07 02:48:42;;;;;;;20.07;15.67;;;1.50;99.90;;;;;;5028900;28;20223;-49
2021/01/07 02:51:07;;;;;;;21.97;16.07;;;1.50;99.90;;;;;;5034191;28;20180;-52
2021/01/07 02:53:33;;;;;;;18.90;14.57;;;1.40;99.90;;;;;;5015757;28;20230;-51
2021/01/07 02:55:59;;;;;;;21.77;15.47;;;1.40;99.90;;;;;;5036804;28;20190;-50
2021/01/07 02:58:24;;;;;;;20.50;16.00;;;1.40;99.90;;;;;;5030990;28;20525;-47
2021/01/07 03:00:50;;;;;;;22.03;16.53;;;1.40;99.90;;;;;;5033484;28;20183;-52
2021/01/07 03:03:15;;;;;;;22.20;16.90;;;1.30;99.90;;;;;;5033198;28;20560;-47
2021/01/07 03:05:41;;;;;;;22.27;17.03;;;1.30;99.90;;;;;;5023765;28;20540;-53
2021/01/07 03:08:06;;;;;;;21.23;15.27;;;1.30;99.90;;;;;;5016062;28;20540;-47
2021/01/07 03:10:33;;;;;;;20.97;16.20;;;1.20;99.90;;;;;;5031550;28;20655;-50
2021/01/07 03:12:59;;;;;;;21.80;16.17;;;1.20;99.90;;;;;;5022942;28;20192;-47
2021/01/07 03:15:24;;;;;;;22.53;16.97;;;1.20;99.90;;;;;;5026482;28;20454;-48
2021/01/07 03:17:50;;;;;;;19.67;15.63;;;1.20;99.90;;;;;;5020043;28;20201;-53
2021/01/07 03:20:15;;;;;;;21.23;16.20;;;1.20;99.90;;;;;;5016096;28;20568;-49
2021/01/07 03:22:42;;;;;;;21.17;15.67;;;1.30;99.90;;;;;;5030812;28;20658;-53
2021/01/07 03:25:09;;;;;;;24.07;17.43;;;1.20;99.90;;;;;;5031369;28;20212;-56
2021/01/07 03:27:36;;;;;;;21.20;16.43;;;1.20;99.90;;;;;;5004807;28;20430;-52
2021/01/07 03:30:04;;;;;;;20.50;15.47;;;1.20;99.90;;;;;;5035358;28;20414;-52
2021/01/07 03:32:29;;;;;;;23.27;16.87;;;1.30;99.90;;;;;;5032247;28;20480;-48
2021/01/07 03:34:55;;;;;;;22.10;16.43;;;1.30;99.90;;;;;;5024393;28;20814;-47
2021/01/07 03:37:20;;;;;;;22.07;16.90;;;1.30;99.90;;;;;;5025863;28;20767;-48
2021/01/07 03:39:46;;;;;;;22.03;16.23;;;1.30;99.90;;;;;;5009470;28;20212;-49
2021/01/07 03:42:12;;;;;;;22.60;17.03;;;1.40;99.90;;;;;;5026909;28;20199;-47
2021/01/07 03:44:37;;;;;;;22.93;16.77;;;1.30;99.90;;;;;;5036095;28;20314;-47
2021/01/07 03:47:03;;;;;;;22.33;16.27;;;1.30;99.90;;;;;;5033634;28;20200;-52
2021/01/07 03:49:29;;;;;;;23.00;16.87;;;1.30;99.90;;;;;;5034550;28;20230;-49
2021/01/07 03:51:54;;;;;;;22.77;16.23;;;1.30;99.90;;;;;;5037449;28;20704;-48
2021/01/07 03:54:20;;;;;;;22.47;16.00;;;1.30;99.90;;;;;;5032417;28;20187;-53
2021/01/07 03:56:45;;;;;;;23.60;17.47;;;1.30;99.90;;;;;;5038309;28;20180;-51
2021/01/07 03:59:11;;;;;;;24.17;17.83;;;1.30;99.90;;;;;;5037768;28;20559;-51
2021/01/07 04:01:36;;;;;;;21.93;16.07;;;1.30;99.90;;;;;;5035965;28;20645;-51
2021/01/07 04:04:02;;;;;;;22.67;16.50;;;1.20;99.90;;;;;;5039410;28;20663;-47
2021/01/07 04:06:28;;;;;;;25.83;18.67;;;1.20;99.90;;;;;;5036426;28;20651;-47
2021/01/07 04:08:53;;;;;;;24.27;16.23;;;1.30;99.90;;;;;;5039038;28;20215;-47
2021/01/07 04:11:19;;;;;;;28.13;19.07;;;1.20;99.90;;;;;;5039326;28;20199;-50
2021/01/07 04:13:44;;;;;;;23.93;17.67;;;1.20;99.90;;;;;;5037670;28;20187;-55
2021/01/07 04:16:10;;;;;;;25.63;18.23;;;1.20;99.90;;;;;;5035959;28;20235;-49
2021/01/07 04:18:35;;;;;;;23.40;17.23;;;1.30;99.90;;;;;;5037373;28;20302;-47
2021/01/07 04:21:01;;;;;;;24.13;17.27;;;1.30;99.90;;;;;;5032510;28;20186;-53
2021/01/07 04:23:27;;;;;;;22.87;16.67;;;1.30;99.90;;;;;;5019357;28;20260;-53
2021/01/07 04:25:52;;;;;;;23.03;17.00;;;1.30;99.90;;;;;;5032485;28;20525;-53
2021/01/07 04:28:18;;;;;;;23.77;16.87;;;1.30;99.90;;;;;;5022848;28;20214;-53
2021/01/07 04:30:43;;;;;;;25.37;18.03;;;1.30;99.90;;;;;;5012332;28;20184;-49
2021/01/07 04:33:09;;;;;;;22.97;16.37;;;1.40;99.90;;;;;;5024050;28;20184;-50
2021/01/07 04:35:34;;;;;;;27.03;19.00;;;1.50;99.90;;;;;;5021041;28;20184;-51
2021/01/07 04:38:00;;;;;;;24.10;18.07;;;1.60;99.90;;;;;;5020945;28;20196;-52
2021/01/07 04:40:26;;;;;;;24.67;17.97;;;1.70;99.90;;;;;;5038604;28;20206;-50
2021/01/07 04:42:51;;;;;;;30.70;20.33;;;1.70;99.90;;;;;;5036060;28;20226;-51
2021/01/07 04:45:17;;;;;;;23.53;17.33;;;1.60;99.90;;;;;;5038678;28;20180;-46
2021/01/07 04:47:46;;;;;;;31.23;19.63;;;1.60;99.90;;;;;;5037076;28;20180;-51
2021/01/07 04:50:12;;;;;;;23.37;17.67;;;1.60;99.90;;;;;;5017224;28;20208;-47
2021/01/07 04:52:38;;;;;;;25.97;18.47;;;1.50;99.90;;;;;;5018834;28;20428;-51
2021/01/07 04:55:04;;;;;;;25.20;19.07;;;1.60;99.90;;;;;;5021815;28;20422;-47
2021/01/07 04:57:30;;;;;;;25.67;18.30;;;1.60;99.90;;;;;;5032737;28;20192;-50
2021/01/07 04:59:55;;;;;;;25.60;18.37;;;1.70;99.90;;;;;;5019788;28;20455;-51
2021/01/07 05:02:22;;;;;;;27.20;18.03;;;1.60;99.90;;;;;;5017042;28;20196;-53
2021/01/07 05:04:48;;;;;;;26.37;19.10;;;1.60;99.90;;;;;;5019287;28;20195;-52
2021/01/07 05:07:16;;;;;;;26.23;18.93;;;1.60;99.90;;;;;;5035317;28;20438;-52
2021/01/07 05:09:42;;;;;;;27.47;20.37;;;1.60;99.90;;;;;;5035893;28;20442;-50
2021/01/07 05:12:08;;;;;;;26.20;19.63;;;1.60;99.90;;;;;;5021831;28;20423;-55
2021/01/07 05:14:44;;;;;;;28.83;20.20;;;1.60;99.90;;;;;;5035013;28;20431;-50
2021/01/07 05:17:13;;;;;;;29.27;20.47;;;1.50;99.90;;;;;;5035303;28;20191;-52
2021/01/07 05:19:39;;;;;;;22.73;17.37;;;1.60;99.90;;;;;;5010964;28;20856;-54
2021/01/07 05:22:05;;;;;;;27.47;19.53;;;1.50;99.90;;;;;;5040272;28;20914;-49
2021/01/07 05:24:32;;;;;;;24.80;18.33;;;1.50;99.90;;;;;;5038402;28;20183;-50
2021/01/07 05:27:05;;;;;;;23.53;17.30;;;1.50;99.90;;;;;;5035783;28;20191;-48
2021/01/07 05:29:31;;;;;;;26.27;18.77;;;1.50;99.90;;;;;;5024604;28;20465;-55
2021/01/07 05:31:56;;;;;;;27.90;20.80;;;1.50;99.90;;;;;;5036349;28;20426;-47
2021/01/07 05:34:22;;;;;;;25.00;17.73;;;1.50;99.90;;;;;;5036422;28;20486;-47
2021/01/07 05:36:47;;;;;;;27.80;21.27;;;1.50;99.90;;;;;;5033985;28;20191;-49
2021/01/07 05:39:13;;;;;;;25.67;19.83;;;1.50;99.90;;;;;;5040010;28;20212;-52
2021/01/07 05:41:39;;;;;;;25.23;18.60;;;1.40;99.90;;;;;;5026269;28;20243;-54
2021/01/07 05:44:06;;;;;;;26.77;19.37;;;1.50;99.90;;;;;;5033549;28;20234;-49
2021/01/07 05:46:33;;;;;;;25.17;18.17;;;1.50;99.90;;;;;;5036620;28;20207;-47
2021/01/07 05:49:00;;;;;;;20.83;16.07;;;1.60;99.90;;;;;;5034252;28;20510;-47
2021/01/07 05:51:28;;;;;;;23.03;16.60;;;1.70;99.90;;;;;;5030412;28;20434;-50
2021/01/07 05:53:55;;;;;;;28.37;19.97;;;1.70;99.90;;;;;;5036630;28;20514;-51
2021/01/07 05:56:22;;;;;;;22.47;17.27;;;1.70;99.90;;;;;;5040706;28;20434;-55
2021/01/07 05:58:48;;;;;;;24.00;17.83;;;1.70;99.90;;;;;;5037745;28;20501;-47
2021/01/07 06:01:19;;;;;;;22.07;17.00;;;1.80;99.90;;;;;;5028283;28;20585;-51
2021/01/07 06:03:48;;;;;;;25.00;18.17;;;1.80;99.90;;;;;;5017838;28;20472;-47
2021/01/07 06:06:15;;;;;;;21.60;16.80;;;1.80;99.90;;;;;;5018422;28;20954;-48
2021/01/07 06:08:49;;;;;;;26.23;19.73;;;1.80;99.90;;;;;;5033169;28;20438;-52
2021/01/07 06:11:16;;;;;;;24.37;18.07;;;1.80;99.90;;;;;;5030957;28;20997;-55
2021/01/07 06:13:44;;;;;;;22.73;17.23;;;1.70;99.90;;;;;;5028735;28;20423;-51
2021/01/07 06:16:18;;;;;;;23.57;18.50;;;1.60;99.90;;;;;;5035424;28;20894;-50
2021/01/07 06:18:44;;;;;;;26.40;18.77;;;1.60;99.90;;;;;;5024305;28;20813;-47
2021/01/07 06:21:11;;;;;;;24.00;16.83;;;1.60;99.90;;;;;;5017700;28;20970;-49
2021/01/07 06:23:42;;;;;;;23.97;17.87;;;1.70;99.90;;;;;;5019806;28;20172;-47
2021/01/07 06:26:17;;;;;;;23.57;18.07;;;1.60;99.90;;;;;;5037135;28;20425;-50
2021/01/07 06:28:45;;;;;;;28.23;19.23;;;1.60;99.90;;;;;;5034444;28;20445;-48
2021/01/07 06:31:15;;;;;;;22.47;16.77;;;1.50;99.90;;;;;;5034466;28;20422;-51
2021/01/07 06:33:43;;;;;;;25.43;17.57;;;1.50;99.90;;;;;;5036213;28;20817;-51
2021/01/07 06:36:09;;;;;;;22.07;16.93;;;1.50;99.90;;;;;;5037309;28;20403;-47
2021/01/07 06:38:35;;;;;;;22.67;17.20;;;1.40;99.90;;;;;;5034651;28;20851;-47
2021/01/07 06:41:01;;;;;;;22.63;17.23;;;1.40;99.90;;;;;;5031838;28;20930;-46
2021/01/07 06:43:31;;;;;;;22.30;19.58;;;1.30;99.90;;;;;;5017657;28;20407;-49
2021/01/07 06:45:57;;;;;;;20.77;17.33;;;1.30;99.90;;;;;;4999846;28;20180;-50
2021/01/07 06:48:24;;;;;;;22.07;17.07;;;1.20;99.90;;;;;;5030489;28;20442;-54
2021/01/07 06:50:54;;;;;;;24.53;17.83;;;1.20;99.90;;;;;;5038963;28;20406;-51
2021/01/07 06:53:20;;;;;;;23.33;16.57;;;1.20;99.90;;;;;;5038093;28;20545;-48
2021/01/07 06:56:18;;;;;;;21.73;17.10;;;1.30;99.90;;;;;;5043021;28;20425;-51
2021/01/07 06:58:45;;;;;;;28.07;19.30;;;1.40;99.90;;;;;;5036625;28;20557;-48
2021/01/07 07:01:14;;;;;;;22.70;15.90;;;1.40;99.90;;;;;;5038332;28;20568;-55
2021/01/07 07:03:48;;;;;;;22.87;16.80;;;1.50;99.90;;;;;;5036846;28;20426;-50
2021/01/07 07:06:17;;;;;;;22.10;16.73;;;1.50;99.90;;;;;;5034597;28;20429;-48
2021/01/07 07:08:48;;;;;;;23.77;17.70;;;1.50;99.90;;;;;;5036476;28;20466;-54
2021/01/07 07:11:30;;;;;;;21.77;16.67;;;1.50;99.90;;;;;;5037290;28;20426;-56
2021/01/07 07:13:58;;;;;;;25.57;18.60;;;1.40;99.90;;;;;;5038030;28;20468;-51
2021/01/07 07:16:24;;;;;;;23.83;17.43;;;1.40;99.90;;;;;;5017703;28;20455;-53
2021/01/07 07:18:55;;;;;;;23.60;17.50;;;1.40;99.90;;;;;;5036104;28;20461;-56
2021/01/07 07:21:24;;;;;;;23.10;17.50;;;1.40;99.90;;;;;;5034027;28;20220;-52
2021/01/07 07:23:51;;;;;;;26.23;18.53;;;1.40;99.90;;;;;;5032426;28;20429;-48
2021/01/07 07:26:35;;;;;;;23.83;17.57;;;1.40;99.90;;;;;;5040176;28;20406;-57
2021/01/07 07:29:04;;;;;;;20.67;16.30;;;1.40;99.90;;;;;;5035736;28;20465;-56
2021/01/07 07:31:46;;;;;;;23.23;17.53;;;1.50;99.90;;;;;;5022727;28;20418;-47
2021/01/07 07:34:13;;;;;;;24.90;17.13;;;1.40;99.90;;;;;;5038567;28;20418;-56
2021/01/07 07:36:41;;;;;;;23.87;17.70;;;1.30;99.90;;;;;;5039224;28;20445;-52
2021/01/07 07:39:08;;;;;;;23.50;17.20;;;1.30;99.90;;;;;;5041817;28;20457;-53
2021/01/07 07:41:39;;;;;;;24.70;18.93;;;1.40;99.90;;;;;;5044691;28;20417;-55
2021/01/07 07:44:05;;;;;;;22.70;17.03;;;1.40;99.90;;;;;;5044613;28;20758;-47
2021/01/07 07:46:31;;;;;;;24.20;18.03;;;1.50;99.90;;;;;;5038582;28;20509;-49
2021/01/07 07:48:59;;;;;;;23.97;18.17;;;1.60;99.90;;;;;;5041907;28;20458;-57
2021/01/07 07:51:24;;;;;;;22.37;16.53;;;1.60;99.90;;;;;;5041424;28;20230;-55
2021/01/07 07:54:00;;;;;;;22.33;17.43;;;1.60;99.90;;;;;;5039076;28;20430;-55
2021/01/07 07:56:26;;;;;;;28.00;19.73;;;1.70;99.90;;;;;;5038455;28;20168;-49
2021/01/07 07:59:05;;;;;;;23.20;16.80;;;1.70;99.90;;;;;;5036347;28;20519;-50
2021/01/07 08:01:38;;;;;;;23.43;17.57;;;1.80;99.90;;;;;;5038283;28;20531;-53
2021/01/07 08:04:09;;;;;;;22.87;17.53;;;1.80;99.90;;;;;;5037442;28;20435;-48
2021/01/07 08:06:36;;;;;;;21.70;16.67;;;1.80;99.90;;;;;;5038114;28;20418;-55
2021/01/07 08:09:04;;;;;;;22.80;16.93;;;1.80;99.90;;;;;;5040987;28;20427;-51
2021/01/07 08:11:30;;;;;;;25.23;18.50;;;1.90;99.90;;;;;;5034383;28;20480;-55
2021/01/07 08:13:58;;;;;;;22.43;16.97;;;2.00;99.90;;;;;;5035585;28;20438;-53
2021/01/07 08:16:25;;;;;;;20.93;15.57;;;2.00;99.90;;;;;;5036106;28;20458;-53
2021/01/07 08:18:51;;;;;;;23.07;16.07;;;2.00;99.90;;;;;;5032069;28;20466;-55
2021/01/07 08:21:16;;;;;;;20.43;16.30;;;2.00;99.90;;;;;;5033975;28;20430;-51
2021/01/07 08:23:42;;;;;;;21.03;15.93;;;2.10;99.90;;;;;;5034665;28;20267;-59
2021/01/07 08:26:12;;;;;;;18.83;15.13;;;2.10;99.90;;;;;;5035145;28;20176;-56
2021/01/07 08:28:45;;;;;;;21.13;15.67;;;2.10;99.90;;;;;;5034597;28;20215;-59
2021/01/07 08:31:19;;;;;;;20.33;16.00;;;2.10;99.90;;;;;;5032729;28;20434;-52
2021/01/07 08:33:46;;;;;;;21.33;15.90;;;2.00;99.90;;;;;;5034652;28;20449;-55
2021/01/07 08:36:14;;;;;;;21.63;16.97;;;2.10;99.90;;;;;;5033928;28;20890;-54
2021/01/07 08:38:41;;;;;;;20.10;15.70;;;2.10;99.90;;;;;;5033945;28;20565;-51
2021/01/07 08:41:24;;;;;;;20.17;14.53;;;2.20;99.90;;;;;;5035195;28;20211;-57
2021/01/07 08:43:51;;;;;;;20.80;15.93;;;2.30;99.90;;;;;;5036410;28;20418;-49
2021/01/07 08:46:21;;;;;;;20.50;14.90;;;2.20;99.90;;;;;;5035749;28;20411;-56
2021/01/07 08:49:00;;;;;;;19.20;14.67;;;2.10;99.90;;;;;;5035285;28;20866;-51
2021/01/07 08:51:27;;;;;;;19.23;15.37;;;2.20;99.90;;;;;;5032929;28;20200;-52
2021/01/07 08:53:56;;;;;;;18.17;14.70;;;2.10;99.90;;;;;;5035323;28;20425;-53
2021/01/07 08:56:32;;;;;;;19.43;15.33;;;2.10;99.90;;;;;;5032552;28;20443;-54
2021/01/07 08:59:17;;;;;;;18.77;14.43;;;2.00;99.90;;;;;;5034557;28;20486;-55
2021/01/07 09:01:43;;;;;;;20.03;16.37;;;2.00;99.90;;;;;;5035034;28;20819;-57
2021/01/07 09:04:34;;;;;;;21.03;16.67;;;2.10;99.90;;;;;;5033744;28;20442;-56
2021/01/07 09:07:13;;;;;;;22.00;16.57;;;2.00;99.90;;;;;;5034116;28;20413;-57
2021/01/07 09:09:43;;;;;;;20.80;15.83;;;2.00;99.90;;;;;;5018280;28;20425;-57
2021/01/07 09:12:23;;;;;;;17.83;14.77;;;2.00;99.90;;;;;;5035394;28;20936;-60
2021/01/07 09:15:05;;;;;;;18.93;14.53;;;2.00;99.90;;;;;;5034803;28;20407;-57
2021/01/07 09:17:52;;;;;;;18.53;14.37;;;2.00;99.90;;;;;;5034802;28;20171;-53
2021/01/07 09:20:36;;;;;;;21.23;15.70;;;2.10;99.90;;;;;;5035219;28;20199;-55
2021/01/07 09:23:08;;;;;;;19.00;15.13;;;2.10;99.90;;;;;;5034796;28;20395;-55
2021/01/07 09:25:35;;;;;;;19.40;14.77;;;2.10;99.90;;;;;;5034893;28;20172;-50
2021/01/07 09:28:01;;;;;;;18.13;14.63;;;1.30;99.90;;;;;;5034575;28;20579;-50
2021/01/07 09:30:27;;;;;;;20.57;15.20;;;2.20;99.90;;;;;;5034747;28;20180;-50
2021/01/07 09:32:53;;;;;;;18.83;14.10;;;2.20;99.90;;;;;;5034340;28;20188;-56
2021/01/07 09:35:19;;;;;;;18.63;14.93;;;2.20;99.90;;;;;;5035163;28;20167;-53
2021/01/07 09:37:45;;;;;;;18.60;14.77;;;2.20;99.90;;;;;;5034420;28;20172;-52
2021/01/07 09:40:12;;;;;;;18.43;14.03;;;2.30;99.90;;;;;;5036145;28;20210;-52
2021/01/07 09:42:37;;;;;;;20.13;15.13;;;2.30;99.90;;;;;;5053651;28;20186;-51
2021/01/07 09:45:05;;;;;;;21.00;15.67;;;2.30;99.90;;;;;;5054673;28;20171;-56
2021/01/07 09:47:30;;;;;;;18.93;14.63;;;2.40;99.90;;;;;;5053616;28;20566;-58
2021/01/07 09:49:58;;;;;;;19.03;15.33;;;2.40;99.90;;;;;;5053732;28;20262;-57
2021/01/07 09:52:24;;;;;;;19.43;15.13;;;2.40;99.90;;;;;;5053881;28;20250;-56
2021/01/07 09:54:50;;;;;;;19.50;14.93;;;2.40;99.90;;;;;;5053993;28;20214;-58
2021/01/07 09:57:15;;;;;;;18.40;15.07;;;2.40;99.90;;;;;;5054810;28;20203;-54
2021/01/07 09:59:41;;;;;;;18.13;14.30;;;2.40;99.90;;;;;;5054947;28;20210;-50
2021/01/07 10:02:08;;;;;;;17.53;14.53;;;2.50;99.90;;;;;;5056321;28;20230;-51
2021/01/07 10:04:34;;;;;;;18.30;13.93;;;2.50;99.90;;;;;;5054909;28;20226;-53
2021/01/07 10:07:01;;;;;;;19.60;14.90;;;2.60;99.90;;;;;;5048223;28;20207;-50
2021/01/07 10:09:27;;;;;;;19.23;14.40;;;2.70;99.90;;;;;;5034107;28;20212;-53
2021/01/07 10:11:58;;;;;;;18.13;14.93;;;2.60;99.90;;;;;;5034333;28;20172;-54
2021/01/07 10:14:24;;;;;;;17.43;13.67;;;2.70;99.90;;;;;;5017105;28;20176;-53
2021/01/07 10:16:55;;;;;;;18.53;15.07;;;2.70;99.90;;;;;;5034223;28;20255;-51
2021/01/07 10:19:22;;;;;;;19.30;14.83;;;2.60;99.90;;;;;;5033842;28;20208;-50
2021/01/07 10:22:07;;;;;;;17.43;13.90;;;2.60;99.90;;;;;;5034635;28;20520;-52
2021/01/07 10:24:40;;;;;;;19.50;13.93;;;2.60;99.90;;;;;;5033927;28;20217;-57
2021/01/07 10:27:10;;;;;;;17.57;14.00;;;2.60;99.90;;;;;;5034094;28;20202;-56
2021/01/07 10:29:37;;;;;;;19.30;15.00;;;2.60;99.90;;;;;;5036565;28;20697;-51
2021/01/07 10:32:07;;;;;;;15.60;12.93;;;2.70;99.90;;;;;;5034588;28;20180;-54
2021/01/07 10:34:35;;;;;;;16.33;13.20;;;2.70;99.90;;;;;;5035498;28;20176;-48
2021/01/07 10:37:03;;;;;;;16.27;12.93;;;2.70;99.90;;;;;;5034140;28;20246;-55
2021/01/07 10:39:31;;;;;;;16.10;12.90;;;2.70;99.90;;;;;;5034282;28;20199;-56
2021/01/07 10:41:58;;;;;;;15.67;12.50;;;2.80;99.90;;;;;;5034307;28;20326;-53
2021/01/07 10:44:27;;;;;;;16.43;12.93;;;2.70;99.90;;;;;;5035306;28;20176;-56
2021/01/07 10:46:56;;;;;;;15.90;13.10;;;2.70;99.90;;;;;;5034502;28;20259;-52
2021/01/07 10:49:26;;;;;;;17.77;13.07;;;2.80;99.90;;;;;;5034472;28;20203;-48
2021/01/07 10:52:12;;;;;;;16.67;13.47;;;2.90;99.90;;;;;;5035735;28;20176;-55
2021/01/07 10:55:09;;;;;;;16.47;11.90;;;2.90;99.90;;;;;;5033549;28;20302;-53
2021/01/07 10:57:55;;;;;;;14.57;12.03;;;2.80;99.90;;;;;;5033187;28;20176;-57
2021/01/07 11:00:35;;;;;;;15.70;12.73;;;2.70;99.90;;;;;;5033432;28;20795;-49
2021/01/07 11:03:10;;;;;;;14.53;12.50;;;2.80;99.90;;;;;;5037868;28;20187;-53
2021/01/07 11:05:37;;;;;;;14.70;12.00;;;2.80;99.90;;;;;;5037705;28;20167;-51
2021/01/07 11:08:30;;;;;;;16.47;13.60;;;2.70;99.90;;;;;;5037988;28;20204;-50
2021/01/07 11:11:00;;;;;;;17.67;12.60;;;2.60;99.90;;;;;;5029921;28;20183;-50
2021/01/07 11:13:54;;;;;;;14.47;11.70;;;2.60;99.90;;;;;;5038236;28;20214;-55
2021/01/07 11:16:26;;;;;;;16.43;12.60;;;2.70;99.90;;;;;;5031456;28;20196;-57
2021/01/07 11:18:58;;;;;;;15.67;12.10;;;3.00;99.90;;;;;;5036457;28;20215;-55
2021/01/07 11:21:29;;;;;;;14.77;12.27;;;3.10;99.90;;;;;;5036065;28;20218;-52
2021/01/07 11:23:56;;;;;;;13.33;11.30;;;3.30;99.90;;;;;;5019896;28;20165;-48
2021/01/07 11:26:22;;;;;;;15.87;12.27;;;3.30;99.90;;;;;;5038581;28;20250;-50
2021/01/07 11:28:51;;;;;;;15.67;12.53;;;3.30;99.90;;;;;;5036863;28;20307;-48
2021/01/07 11:31:17;;;;;;;14.53;11.93;;;3.40;99.90;;;;;;5038052;28;20176;-50
2021/01/07 11:33:44;;;;;;;14.03;11.60;;;3.50;99.90;;;;;;5036841;28;20171;-49
2021/01/07 11:36:18;;;;;;;12.47;10.63;;;3.60;99.90;;;;;;5037697;28;20604;-50
2021/01/07 11:38:58;;;;;;;14.60;11.80;;;3.60;99.90;;;;;;5039192;28;20212;-49
2021/01/07 11:41:39;;;;;;;13.60;11.53;;;3.70;99.90;;;;;;5038525;28;20570;-50
2021/01/07 11:44:22;;;;;;;13.00;10.93;;;4.10;99.90;;;;;;5037648;28;20183;-50
2021/01/07 11:46:48;;;;;;;13.10;10.57;;;4.40;99.90;;;;;;5035222;28;20828;-49
2021/01/07 11:49:19;;;;;;;11.80;10.30;;;4.80;99.90;;;;;;5033260;28;20856;-51
2021/01/07 11:51:51;;;;;;;12.17;10.67;;;5.30;99.90;;;;;;5034531;28;20188;-54
2021/01/07 11:54:18;;;;;;;12.87;10.70;;;6.10;99.90;;;;;;5027147;28;20180;-49
2021/01/07 11:56:46;;;;;;;14.13;9.83;;;7.00;99.90;;;;;;5014045;28;20203;-51
2021/01/07 11:59:13;;;;;;;10.30;9.20;;;8.20;99.90;;;;;;5013715;28;20612;-50
2021/01/07 12:01:40;;;;;;;10.17;9.07;;;10.10;99.90;;;;;;5014715;28;20652;-51
2021/01/07 12:04:10;;;;;;;10.00;9.00;;;12.40;99.90;;;;;;5015595;28;20196;-51
2021/01/07 12:06:38;;;;;;;10.73;9.63;;;14.50;99.90;;;;;;5019932;28;20247;-55
2021/01/07 12:09:19;;;;;;;11.00;9.90;;;15.70;95.70;;;;;;5036419;28;20548;-52
2021/01/07 12:12:04;;;;;;;10.10;9.10;;;16.60;92.40;;;;;;5035250;28;20163;-51
2021/01/07 12:14:39;;;;;;;11.13;9.43;;;17.20;91.60;;;;;;5034695;28;20238;-48
2021/01/07 12:17:06;;;;;;;10.03;8.73;;;17.00;90.50;;;;;;5033888;28;20718;-53
2021/01/07 12:19:35;;;;;;;9.30;8.40;;;17.60;90.80;;;;;;5036550;28;20231;-51
2021/01/07 12:22:03;;;;;;;10.03;9.07;;;17.70;89.90;;;;;;5035157;28;20185;-49
2021/01/07 12:24:31;;;;;;;9.63;8.73;;;18.60;89.20;;;;;;5036035;28;20174;-51
2021/01/07 12:26:57;;;;;;;8.93;8.13;;;18.90;86.90;;;;;;5035522;28;20271;-55
2021/01/07 12:29:23;;;;;;;9.65;8.75;;;19.00;85.20;;;;;;5036679;28;20257;-56
2021/01/07 12:32:02;;;;;;;8.73;7.93;;;20.20;82.90;;;;;;5035703;28;20517;-53
2021/01/07 12:34:51;;;;;;;9.50;8.60;;;20.30;80.50;;;;;;5036105;28;20218;-57
2021/01/07 12:37:19;;;;;;;11.17;10.10;;;19.70;76.40;;;;;;5015960;28;20165;-55
2021/01/07 12:39:51;;;;;;;10.33;9.37;;;19.20;77.30;;;;;;5030798;28;20211;-54
2021/01/07 12:42:22;;;;;;;10.80;9.80;;;18.70;77.40;;;;;;5033880;28;20180;-55
2021/01/07 12:44:51;;;;;;;12.77;11.57;;;17.50;78.80;;;;;;5034872;28;20172;-57